AGROMETEOROLOŠKI PORTAL

vinorodna pokrajina

Temelj dobrega kmetovanja

Pregled podatkov za lokacijo Potoki, meteorološka postaja 37288

Pregled senzorjev na lokaciji

ID Ime Zadnja
vrednost
Datum in čas
meritve
(lokalni čas)
Tip
senzorja
3179 Omočenost lista (1,5 m) (U) 7 U 25.9.2022 21:30 A730WET
5055 Padavine (mm) 0 mm 25.9.2022 21:30 Generic 0.2 mm
1799 Relativna zračna vlaga (2 m) (%RH) 100 %RH 25.9.2022 21:30 50YA
5816 Temperatura tal (30 cm) (°C) 16,1 °C 25.9.2022 21:30 ST2
1798 Temperatura (2 m) (°C) 12,9 °C 25.9.2022 21:30 50YA

Pregled podatkov zadnjih 24 ur

Zap.
št.
Datum in čas
(lokalni čas)
Potoki
Omočenost
lista
(1,5
m)
Padavine Relativna
zračna
vlaga
(2
m)
Temperatura
tal
(30
cm)
Temperatura
(2
m)
1 25.9.2022 21:30 7 0 99,9 16,1 12,9
2 25.9.2022 21:00 7 0 99,9 16,2 12,9
3 25.9.2022 20:30 7 0 99,9 16,3 12,9
4 25.9.2022 20:00 8 0,2 99,9 16 12,9
5 25.9.2022 19:30 9 0,6 99,9 16,1 13
6 25.9.2022 19:00 10 0,2 99,9 16,1 13,1
7 25.9.2022 18:30 10 0,2 99,9 16,3 13,4
8 25.9.2022 18:00 8 0 99,9 16,1 13,6
9 25.9.2022 17:30 9 0 99,9 15,9 13,7
10 25.9.2022 17:00 9 0 99,9 16,1 13,5
11 25.9.2022 16:30 8 0 99,6 16,1 13,5
12 25.9.2022 16:00 8 0 99,8 15,9 13,6
13 25.9.2022 15:30 7 0 99,3 15,9 13,6
14 25.9.2022 15:00 0 0 96,5 16 13,5
15 25.9.2022 14:30 0 0 99,9 15,9 13,6
16 25.9.2022 14:00 0 0 99,9 15,9 13,8
17 25.9.2022 13:30 0 0 99,9 15,9 13,7
18 25.9.2022 13:00 0 0,2 99,9 15,8 13,2
19 25.9.2022 12:30 2 0 99,9 15,9 12,9
20 25.9.2022 12:00 7 0 99,9 15,9 12,4
21 25.9.2022 11:30 6 0 99,9 16,1 12,3
22 25.9.2022 11:00 5 0,4 99,9 16,1 12,2
23 25.9.2022 10:30 4 0,8 99,9 16,2 12
24 25.9.2022 10:00 4 1,2 99,9 16 11,7
25 25.9.2022 09:30 4 2 99,9 16,2 11,5
26 25.9.2022 09:00 4 3,4 99,9 16,1 11,4
27 25.9.2022 08:30 4 4,6 99,9 16,4 11,4
28 25.9.2022 08:00 4 4,4 99,9 16,3 11,3
29 25.9.2022 07:30 4 5,2 99,9 16,5 11,3
30 25.9.2022 07:00 4 3,6 99,9 16,8 11,3
31 25.9.2022 06:30 4 3,4 99,9 16,6 11,4
32 25.9.2022 06:00 4 1,8 99,9 16,8 11,4
33 25.9.2022 05:30 4 2,6 99,9 16,7 11,4
34 25.9.2022 05:00 4 3,6 99,9 16,7 11,4
35 25.9.2022 04:30 4 2,4 99,9 16,7 11,4
36 25.9.2022 04:00 4 2 99,9 16,8 11,5
37 25.9.2022 03:30 4 3 99,9 16,7 11,5
38 25.9.2022 03:00 4 2,8 99,9 16,9 11,5
39 25.9.2022 02:30 6 2,2 99,9 16,9 11,6
40 25.9.2022 02:00 6 1,8 99,9 16,9 11,6
41 25.9.2022 01:30 8 1,8 99,9 16,8 11,6
42 25.9.2022 01:00 10 0,4 99,9 17 11,7
43 25.9.2022 00:30 10 0,4 99,9 16,8 11,7
44 25.9.2022 00:00 10 0,2 99,8 16,7 11,9
45 24.9.2022 23:30 10 0 97,3 17 12,1
46 24.9.2022 23:00 10 0 95,8 17 12,2